Weather at Gjirokastër Airfield

Public forecast

Using degrees Celsius for public forecast. Weather courtesy of forecast.io.

Closest aviation weather report (METAR) to Gjirokastër Airfield

Report is more than 2 hours old.

Closest report is Ioannis Kapodistrias International Airport, 31.1 nm (57.6 km) SSW. Retrieved 2022/01/19 20:50 UTC (3 hours ago):

LGKR 192050Z 00000KT CAVOK 04/01 Q1028 NOSIG

Closest aviation forecast (TAF) to Gjirokastër Airfield

Closest forecast is Ioannis Kapodistrias International Airport, 31.1 nm (57.6 km) SSW. Retrieved 2022/01/19 18:17 UTC (5 hours ago):

TAF LGKR 191700Z 1918/2018 VRB03KT 9999 FEW020 BECMG 2000/2002 16010KT BECMG 2015/2017 FEW010 BKN030 BKN080